Newfoundland, Kentucky
Current Conditions -  °F | °C
As of 7:30 AM on Monday 22 Dec 2014 (Local Time) from KSYM Reporting Station
Overcast Overcast  
Wind Chill: 36°   Ceiling: 6000
Heat Index: 39°   Visibility: 10mi
Dew Point: 30°   Wind: 5mph
Humidity: 70%   Direction: 120°ESE
Pressure: 30.04"   Gusts: NA
Location:  38.1397°N, 83.158°W
Report Text: KSYM 221230Z AUTO 12004KT 10SM FEW031 FEW038 OVC060 04/M01 A3004 RMK AO2
Loading
Personal Weather Stations






























Interactive Weather Map New forecast layout! Learn more

10-Day Weather Forecast

Advertisements
Track Severe Weather on mobile